Derby, Australia
Current Conditions -  °F | °C
As of 7:00 AM on Wednesday 28 Jan 2015 (Local Time) from YCIN Reporting Station
Clear Clear  
Wind Chill: 81°   Ceiling: Unl
Heat Index: 87°   Visibility: NA
Dew Point: 77°   Wind: 6mph
Humidity: 89%   Direction: 240°WSW
Pressure: 29.74"   Gusts: NA
Location:  17.37°S, 123.67°E
Report Text: YCIN 272300Z AUTO 24005KT //// // NCD 27/25 Q1007
Loading
Personal Weather Stations






























Interactive Weather Map New forecast layout! Learn more

10-Day Weather Forecast

Advertisements
Track Severe Weather on mobile